Time;durP1;ratioP1;P1;durP2;ratioP2;P2;SDS_P1;SDS_P2;PMS_P1;PMS_P2;Temp;Humidity;BMP_temperature;BMP_pressure;BME280_temperature;BME280_humidity;BME280_pressure;Samples;Min_cycle;Max_cycle;Signal;HPM_P1;HPM_P2
2022/10/12 00:00:23;;;;;;;52.57;25.80;;;;;;;10.05;61.60;101263.28;124625;1099;104271;-76
2022/10/12 00:03:14;;;;;;;54.87;27.03;;;;;;;10.00;61.68;101269.11;124622;1099;104211;-76
2022/10/12 00:05:46;;;;;;;50.80;24.13;;;;;;;9.96;62.40;101270.69;124577;1099;104294;-75
2022/10/12 00:08:17;;;;;;;51.93;27.13;;;;;;;9.95;62.13;101267.98;124568;1099;102838;-76
2022/10/12 00:10:49;;;;;;;49.30;25.93;;;;;;;9.92;62.04;101266.09;124666;1099;104211;-75
2022/10/12 00:13:20;;;;;;;52.20;26.07;;;;;;;9.90;62.60;101268.64;124705;1098;104226;-76
2022/10/12 00:15:51;;;;;;;53.17;26.63;;;;;;;9.88;62.19;101264.16;124743;1099;104242;-76
2022/10/12 00:18:22;;;;;;;54.57;27.43;;;;;;;9.85;62.95;101259.66;124590;1099;102857;-75
2022/10/12 00:21:04;;;;;;;51.67;25.27;;;;;;;9.82;62.23;101267.36;124611;1099;104169;-76
2022/10/12 00:23:38;;;;;;;58.80;26.90;;;;;;;9.78;62.65;101265.39;124633;1099;104051;-76
2022/10/12 00:26:16;;;;;;;51.02;26.45;;;;;;;9.76;62.53;101269.66;124608;1099;104197;-76
2022/10/12 00:28:48;;;;;;;50.47;25.07;;;;;;;9.73;62.67;101268.62;124677;1098;104210;-76
2022/10/12 00:31:20;;;;;;;50.93;25.40;;;;;;;9.67;63.00;101274.43;124601;1099;104348;-76
2022/10/12 00:33:52;;;;;;;49.50;25.43;;;;;;;9.65;62.81;101276.97;124599;1099;102248;-76
2022/10/12 00:36:25;;;;;;;47.03;25.07;;;;;;;9.65;63.23;101276.09;124578;1099;104226;-75
2022/10/12 00:38:57;;;;;;;49.00;24.23;;;;;;;9.60;62.85;101273.23;124585;1099;104322;-76
2022/10/12 00:41:30;;;;;;;47.03;24.43;;;;;;;9.59;63.52;101270.52;124568;1099;104268;-76
2022/10/12 00:44:01;;;;;;;49.90;25.00;;;;;;;9.51;63.72;101267.50;124655;1099;103837;-76
2022/10/12 00:46:36;;;;;;;46.73;24.63;;;;;;;9.46;63.53;101268.99;124566;1099;104570;-75
2022/10/12 00:49:15;;;;;;;47.97;24.63;;;;;;;9.42;63.17;101272.26;124615;1099;104331;-76
2022/10/12 00:51:51;;;;;;;45.80;24.30;;;;;;;9.35;63.79;101268.42;124616;1099;104235;-76
2022/10/12 00:54:28;;;;;;;44.50;22.83;;;;;;;9.29;63.87;101265.48;124631;1099;102531;-76
2022/10/12 00:57:02;;;;;;;43.10;23.73;;;;;;;9.24;63.79;101277.41;124614;1099;104679;-76
2022/10/12 00:59:38;;;;;;;43.57;22.37;;;;;;;9.18;63.66;101273.66;124663;1099;104191;-76
2022/10/12 01:02:10;;;;;;;44.77;22.80;;;;;;;9.16;64.26;101269.14;124615;1099;102861;-76
2022/10/12 01:04:42;;;;;;;44.13;23.23;;;;;;;9.13;63.63;101263.73;124623;1099;104207;-76
2022/10/12 01:07:15;;;;;;;46.57;24.20;;;;;;;9.12;63.99;101275.94;124624;1098;102209;-76
2022/10/12 01:09:46;;;;;;;45.38;23.75;;;;;;;9.12;64.46;101269.81;124624;1099;104169;-76
2022/10/12 01:12:19;;;;;;;45.37;23.37;;;;;;;9.12;64.24;101268.09;125470;1098;102970;-76
2022/10/12 01:14:50;;;;;;;47.03;24.17;;;;;;;9.13;64.24;101263.73;124609;1099;104256;-76
2022/10/12 01:17:34;;;;;;;48.27;23.87;;;;;;;9.14;64.58;101271.67;124581;1098;104162;-75
2022/10/12 01:20:34;;;;;;;46.37;23.90;;;;;;;9.16;64.00;101270.06;124653;1099;102222;-76
2022/10/12 01:23:36;;;;;;;47.57;23.93;;;;;;;9.15;64.32;101273.48;124663;1099;102883;-76
2022/10/12 01:26:24;;;;;;;44.40;23.03;;;;;;;9.11;64.34;101273.23;124620;1099;104319;-76
2022/10/12 01:29:07;;;;;;;47.37;24.00;;;;;;;9.08;64.13;101273.96;124647;1099;104243;-75
2022/10/12 01:31:46;;;;;;;49.17;23.77;;;;;;;9.06;64.79;101277.34;124654;1099;104265;-76
2022/10/12 01:34:25;;;;;;;45.67;23.53;;;;;;;8.99;64.71;101276.08;124607;1099;104242;-76
2022/10/12 01:37:05;;;;;;;47.60;23.23;;;;;;;8.94;64.65;101278.48;124614;1099;104278;-76
2022/10/12 01:39:41;;;;;;;43.80;23.13;;;;;;;8.89;65.18;101272.07;124610;1099;102877;-76
2022/10/12 01:42:18;;;;;;;45.60;24.40;;;;;;;8.85;65.27;101282.28;124735;1099;104160;-76
2022/10/12 01:44:49;;;;;;;43.07;23.50;;;;;;;8.78;65.25;101281.94;124663;1099;104191;-75
2022/10/12 01:47:21;;;;;;;47.03;22.07;;;;;;;8.74;64.92;101286.92;124626;1099;102882;-75
2022/10/12 01:49:52;;;;;;;48.47;23.43;;;;;;;8.69;65.34;101284.05;124590;1099;104173;-75
2022/10/12 01:52:29;;;;;;;46.03;23.47;;;;;;;8.67;65.26;101287.42;124662;1099;103013;-76
2022/10/12 01:55:19;;;;;;;46.77;22.97;;;;;;;8.62;65.55;101285.43;124667;1099;104204;-76
2022/10/12 01:58:01;;;;;;;44.93;22.07;;;;;;;8.58;65.88;101291.29;124607;1099;104281;-76
2022/10/12 02:00:40;;;;;;;44.60;22.60;;;;;;;8.55;65.60;101285.89;124655;1099;104332;-76
2022/10/12 02:03:20;;;;;;;45.53;22.40;;;;;;;8.54;65.62;101293.65;124592;1099;104338;-75
2022/10/12 02:05:57;;;;;;;42.37;21.30;;;;;;;8.54;65.84;101289.34;124611;1099;104169;-76
2022/10/12 02:08:34;;;;;;;41.60;22.97;;;;;;;8.57;65.91;101284.28;124654;1099;104172;-76
2022/10/12 02:11:09;;;;;;;42.70;21.90;;;;;;;8.56;66.17;101303.40;124620;1099;104245;-76
2022/10/12 02:13:44;;;;;;;42.10;21.43;;;;;;;8.53;66.25;101297.99;124626;1098;104179;-76
2022/10/12 02:16:19;;;;;;;41.73;22.20;;;;;;;8.49;66.30;101285.54;124651;1099;103068;-76
2022/10/12 02:18:54;;;;;;;44.73;22.37;;;;;;;8.45;66.53;101297.55;124575;1099;104268;-76
2022/10/12 02:21:29;;;;;;;40.23;22.30;;;;;;;8.44;66.56;101292.23;124611;1099;101843;-75
2022/10/12 02:24:05;;;;;;;41.47;22.27;;;;;;;8.41;66.78;101299.88;124603;1099;102828;-76
2022/10/12 02:26:40;;;;;;;41.45;21.70;;;;;;;8.40;66.76;101303.32;124588;1099;102403;-75
2022/10/12 02:29:16;;;;;;;44.13;21.80;;;;;;;8.34;66.42;101308.20;124600;1099;103064;-75
2022/10/12 02:31:53;;;;;;;44.30;21.60;;;;;;;8.29;66.76;101300.09;124573;1099;104063;-76
2022/10/12 02:34:29;;;;;;;46.00;23.17;;;;;;;8.25;66.91;101303.33;124613;1099;103371;-76
2022/10/12 02:37:09;;;;;;;44.10;21.97;;;;;;;8.22;66.90;101298.81;124611;1099;103279;-75
2022/10/12 02:39:47;;;;;;;39.17;22.20;;;;;;;8.19;66.93;101303.86;124644;1099;104179;-76
2022/10/12 02:42:22;;;;;;;46.43;22.97;;;;;;;8.16;67.07;101311.52;124606;1099;104211;-76
2022/10/12 02:44:57;;;;;;;43.63;22.90;;;;;;;8.13;67.00;101300.89;124654;1098;108330;-75
2022/10/12 02:47:31;;;;;;;43.10;22.53;;;;;;;8.09;67.53;101304.16;124724;1098;102444;-75
2022/10/12 02:50:04;;;;;;;41.53;21.33;;;;;;;8.05;66.95;101304.78;124667;1099;104242;-76
2022/10/12 02:52:36;;;;;;;43.77;22.70;;;;;;;8.00;67.54;101304.50;124623;1098;104237;-75
2022/10/12 02:55:08;;;;;;;43.87;24.13;;;;;;;7.95;67.36;101302.42;124638;1099;118547;-75
2022/10/12 02:57:39;;;;;;;44.90;22.80;;;;;;;7.89;67.90;101303.88;124609;1099;102851;-76
2022/10/12 03:00:13;;;;;;;45.37;25.00;;;;;;;7.87;67.73;101308.11;124627;1099;102889;-75
2022/10/12 03:02:43;;;;;;;;;;;;;;;7.82;67.56;101306.95;124749;1099;104169;-75
2022/10/12 03:05:14;;;;;;;48.47;25.03;;;;;;;7.78;67.62;101307.56;124566;1099;104210;-76
2022/10/12 03:07:45;;;;;;;46.27;24.53;;;;;;;7.76;67.50;101309.20;124609;1099;102816;-76
2022/10/12 03:10:16;;;;;;;45.23;23.20;;;;;;;7.74;68.08;101309.10;124617;1099;104265;-76
2022/10/12 03:12:47;;;;;;;42.00;22.53;;;;;;;7.74;67.89;101306.48;124615;1098;104238;-75
2022/10/12 03:15:19;;;;;;;45.13;23.93;;;;;;;7.81;68.00;101302.52;124666;1099;104249;-76
2022/10/12 03:17:50;;;;;;;44.50;23.60;;;;;;;7.87;68.21;101300.27;124650;1099;104163;-76
2022/10/12 03:20:21;;;;;;;47.40;23.20;;;;;;;7.90;68.39;101310.02;124644;1099;102699;-76
2022/10/12 03:22:53;;;;;;;43.27;21.23;;;;;;;7.87;68.07;101302.00;125701;1097;102732;-76
2022/10/12 03:25:25;;;;;;;48.27;25.00;;;;;;;7.84;68.19;101313.16;124677;1099;103547;-76
2022/10/12 03:27:56;;;;;;;45.57;23.33;;;;;;;7.82;67.96;101306.02;124632;1099;104242;-77
2022/10/12 03:30:27;;;;;;;42.73;23.33;;;;;;;7.78;68.39;101306.67;124668;1098;104242;-76
2022/10/12 03:32:59;;;;;;;47.67;23.97;;;;;;;7.76;68.20;101308.27;124621;1098;102328;-76
2022/10/12 03:35:30;;;;;;;41.83;22.87;;;;;;;7.74;68.66;101310.79;124621;1099;102925;-76
2022/10/12 03:38:02;;;;;;;46.47;22.90;;;;;;;7.71;68.67;101305.38;124633;1099;102831;-76
2022/10/12 03:40:34;;;;;;;42.63;21.70;;;;;;;7.70;68.34;101307.10;124605;1098;104169;-76
2022/10/12 03:43:06;;;;;;;40.17;22.10;;;;;;;7.68;68.30;101306.12;124641;1099;104274;-77
2022/10/12 03:45:38;;;;;;;48.30;22.37;;;;;;;7.66;68.59;101305.10;124561;1099;104278;-76
2022/10/12 03:48:09;;;;;;;39.80;21.60;;;;;;;7.63;68.81;101309.25;124601;1099;104255;-76
2022/10/12 03:50:40;;;;;;;38.20;20.70;;;;;;;7.58;68.64;101302.86;124637;1099;104165;-75
2022/10/12 03:53:12;;;;;;;41.50;21.20;;;;;;;7.54;69.10;101306.97;124661;1099;102934;-77
2022/10/12 03:55:43;;;;;;;44.50;22.47;;;;;;;7.49;68.71;101311.91;124624;1098;104242;-76
2022/10/12 03:58:15;;;;;;;42.53;22.80;;;;;;;7.47;68.87;101303.09;124640;1099;104227;-76
2022/10/12 04:00:47;;;;;;;41.23;20.90;;;;;;;7.49;68.73;101305.80;124642;1099;104192;-76
2022/10/12 04:03:18;;;;;;;45.13;21.47;;;;;;;7.50;69.21;101316.34;124594;1099;104198;-74
2022/10/12 04:05:56;;;;;;;45.47;21.50;;;;;;;7.47;68.88;101315.26;124557;1099;104176;-74
2022/10/12 04:08:29;;;;;;;46.60;21.73;;;;;;;7.44;68.76;101315.97;124656;1099;104306;-75
2022/10/12 04:11:00;;;;;;;39.73;21.63;;;;;;;7.39;69.06;101314.78;124585;1099;104242;-74
2022/10/12 04:13:31;;;;;;;42.03;21.67;;;;;;;7.34;69.66;101313.61;124578;1099;104217;-75
2022/10/12 04:16:06;;;;;;;40.43;21.60;;;;;;;7.28;69.47;101316.73;124561;1099;104283;-74
2022/10/12 04:18:37;;;;;;;43.40;21.47;;;;;;;7.23;69.54;101312.95;124609;1099;104179;-75
2022/10/12 04:21:14;;;;;;;41.43;21.10;;;;;;;7.18;69.49;101317.88;124595;1099;101839;-74
2022/10/12 04:23:45;;;;;;;43.53;22.23;;;;;;;7.15;69.69;101320.30;124579;1099;104335;-75
2022/10/12 04:26:16;;;;;;;41.87;21.03;;;;;;;7.11;69.92;101326.13;124622;1099;104250;-74
2022/10/12 04:28:47;;;;;;;44.60;22.13;;;;;;;7.03;69.70;101322.14;124758;1099;104229;-75
2022/10/12 04:31:23;;;;;;;40.17;21.40;;;;;;;7.06;70.03;101334.45;124566;1099;104236;-75
2022/10/12 04:33:56;;;;;;;40.23;21.33;;;;;;;7.02;69.72;101336.87;124649;1099;104240;-74
2022/10/12 04:36:27;;;;;;;41.27;21.80;;;;;;;7.03;69.94;101337.80;124232;1099;103169;-75
2022/10/12 04:38:58;;;;;;;43.20;21.70;;;;;;;7.10;69.94;101342.58;124605;1099;102283;-75
2022/10/12 04:41:29;;;;;;;50.30;21.50;;;;;;;7.14;70.16;101347.20;124593;1099;104191;-75
2022/10/12 04:44:01;;;;;;;37.80;20.33;;;;;;;7.13;70.40;101349.70;124631;1099;104184;-74
2022/10/12 04:46:32;;;;;;;42.37;20.00;;;;;;;7.10;70.26;101349.52;124578;1099;102940;-75
2022/10/12 04:49:03;;;;;;;41.27;20.13;;;;;;;7.05;70.91;101351.83;124192;1099;102377;-75
2022/10/12 04:51:34;;;;;;;37.37;19.33;;;;;;;7.00;71.19;101350.65;124605;1099;104070;-75
2022/10/12 04:54:05;;;;;;;40.83;19.43;;;;;;;6.99;71.95;101354.05;124685;1099;103414;-76
2022/10/12 04:56:37;;;;;;;41.43;19.33;;;;;;;6.98;71.47;101352.23;124642;1099;104236;-76
2022/10/12 04:59:08;;;;;;;37.00;18.50;;;;;;;6.99;71.22;101351.44;124573;1099;104240;-75
2022/10/12 05:01:42;;;;;;;41.73;19.75;;;;;;;7.00;71.73;101355.87;124659;1099;104178;-75
2022/10/12 05:04:13;;;;;;;36.55;18.70;;;;;;;7.00;72.01;101374.13;124659;1099;102880;-75
2022/10/12 05:06:44;;;;;;;38.30;19.53;;;;;;;7.01;72.66;101371.63;124764;1099;104265;-76
2022/10/12 05:09:15;;;;;;;39.07;19.33;;;;;;;7.04;72.80;101370.89;124937;1099;104262;-76
2022/10/12 05:11:46;;;;;;;38.07;19.43;;;;;;;7.02;73.35;101370.80;125083;1099;102769;-77
2022/10/12 05:14:20;;;;;;;40.27;19.83;;;;;;;7.01;73.61;101375.92;125067;1099;104243;-76
2022/10/12 05:16:52;;;;;;;37.30;19.60;;;;;;;7.00;73.57;101377.63;124790;1099;104059;-76
2022/10/12 05:19:23;;;;;;;43.93;20.57;;;;;;;7.02;73.10;101375.13;125064;1098;102170;-76
2022/10/12 05:21:54;;;;;;;37.63;19.43;;;;;;;7.02;73.60;101381.23;124763;1099;104201;-76
2022/10/12 05:24:27;;;;;;;39.93;20.13;;;;;;;7.06;72.81;101376.21;124706;1099;104191;-76
2022/10/12 05:27:02;;;;;;;36.25;17.85;;;;;;;7.12;73.32;101382.75;124815;1099;104270;-77
2022/10/12 05:29:34;;;;;;;35.03;17.67;;;;;;;7.19;73.53;101378.81;124230;1099;104171;-76
2022/10/12 05:32:05;;;;;;;38.00;17.37;;;;;;;7.25;73.51;101383.53;124622;1099;104196;-77
2022/10/12 05:34:36;;;;;;;37.50;16.73;;;;;;;7.31;73.54;101378.70;124693;1099;104255;-76
2022/10/12 05:37:12;;;;;;;35.90;17.90;;;;;;;7.35;73.20;101368.54;124666;1099;104220;-75
2022/10/12 05:39:45;;;;;;;32.73;15.40;;;;;;;7.42;73.39;101371.50;124692;1099;104185;-76
2022/10/12 05:42:20;;;;;;;33.13;15.50;;;;;;;7.49;72.90;101369.36;124602;1099;104223;-75
2022/10/12 05:44:51;;;;;;;32.75;15.65;;;;;;;7.56;73.99;101381.12;124596;1099;104259;-76
2022/10/12 05:47:23;;;;;;;29.93;14.57;;;;;;;7.64;73.29;101381.59;124697;1099;104235;-76
2022/10/12 05:49:56;;;;;;;32.42;15.55;;;;;;;7.71;73.58;101386.37;124314;1099;104211;-75
2022/10/12 05:52:31;;;;;;;33.00;14.87;;;;;;;7.79;72.81;101386.84;124782;1099;102802;-77
2022/10/12 05:55:03;;;;;;;28.77;14.07;;;;;;;7.90;72.48;101388.42;124249;1102;102882;-77
2022/10/12 05:57:42;;;;;;;29.63;13.97;;;;;;;8.02;73.57;101393.46;124691;1099;104287;-76
2022/10/12 06:00:17;;;;;;;32.80;14.40;;;;;;;8.05;73.22;101398.88;124661;1099;104220;-76
2022/10/12 06:02:49;;;;;;;36.07;14.53;;;;;;;8.09;73.53;101403.49;124662;1099;103443;-75
2022/10/12 06:05:20;;;;;;;32.53;15.43;;;;;;;8.12;73.37;101400.14;124214;1099;102866;-74
2022/10/12 06:07:51;;;;;;;30.70;13.87;;;;;;;8.17;73.40;101402.23;125402;1098;104335;-75
2022/10/12 06:10:23;;;;;;;31.80;14.20;;;;;;;8.21;72.80;101412.07;124632;1099;102483;-76
2022/10/12 06:12:56;;;;;;;32.67;14.60;;;;;;;8.27;73.52;101408.90;124591;1099;104249;-76
2022/10/12 06:15:30;;;;;;;39.07;14.93;;;;;;;8.38;73.45;101406.92;124741;1099;104204;-76
2022/10/12 06:18:06;;;;;;;31.05;14.95;;;;;;;8.54;72.89;101416.59;124235;1099;104204;-77
2022/10/12 06:20:38;;;;;;;30.70;15.23;;;;;;;8.65;73.26;101418.15;124692;1099;104169;-77
2022/10/12 06:23:10;;;;;;;29.30;12.87;;;;;;;8.77;72.92;101417.94;124222;1099;104338;-76
2022/10/12 06:25:49;;;;;;;33.77;15.40;;;;;;;8.90;72.78;101422.19;124672;1099;104248;-76
2022/10/12 06:28:22;;;;;;;30.90;14.67;;;;;;;9.03;72.48;101426.39;124650;1098;104331;-75
2022/10/12 06:30:58;;;;;;;35.47;14.73;;;;;;;9.12;72.90;101419.06;124635;1099;101925;-75
2022/10/12 06:33:30;;;;;;;32.77;15.40;;;;;;;9.22;72.52;101418.73;124651;1099;104172;-75
2022/10/12 06:36:01;;;;;;;38.17;14.70;;;;;;;9.32;72.48;101423.69;124670;1099;101893;-75
2022/10/12 06:38:33;;;;;;;33.63;14.40;;;;;;;9.42;72.25;101421.58;124619;1099;104265;-76
2022/10/12 06:41:07;;;;;;;31.10;14.07;;;;;;;9.55;72.20;101424.03;124316;1100;103433;-77
2022/10/12 06:43:43;;;;;;;30.77;13.40;;;;;;;9.71;72.15;101423.17;124333;1099;104280;-78
2022/10/12 06:46:16;;;;;;;37.17;14.10;;;;;;;9.83;72.54;101426.45;124719;1099;102007;-77
2022/10/12 06:48:50;;;;;;;32.93;12.97;;;;;;;10.01;72.12;101425.62;124328;1099;104166;-75
2022/10/12 06:51:22;;;;;;;29.43;13.20;;;;;;;10.16;72.41;101428.12;124648;1099;104195;-76
2022/10/12 06:54:02;;;;;;;28.47;12.47;;;;;;;10.30;72.35;101426.22;124732;1099;104238;-76
2022/10/12 06:56:38;;;;;;;27.17;12.53;;;;;;;10.45;72.14;101426.15;124679;1099;104210;-76
2022/10/12 06:59:13;;;;;;;31.80;12.47;;;;;;;10.60;71.64;101426.93;125090;1098;102877;-76
2022/10/12 07:09:23;;;;;;;22.17;9.83;;;;;;;11.07;70.46;101430.99;124428;1099;104207;-75
2022/10/12 07:12:04;;;;;;;22.40;8.83;;;;;;;11.20;70.69;101427.22;124681;1099;104217;-76
2022/10/12 07:14:36;;;;;;;20.67;9.10;;;;;;;11.31;70.17;101426.03;124726;1099;104232;-77
2022/10/12 07:20:00;;;;;;;23.80;9.00;;;;;;;11.64;70.10;101425.80;124666;1099;104647;-77
2022/10/12 07:22:37;;;;;;;23.03;9.37;;;;;;;11.82;70.21;101425.72;124680;1099;104219;-74
2022/10/12 07:25:13;;;;;;;23.80;9.43;;;;;;;11.99;69.94;101430.89;124778;1099;104198;-75
2022/10/12 07:27:47;;;;;;;23.33;9.13;;;;;;;12.13;69.85;101432.39;124658;1099;104406;-75
2022/10/12 07:30:20;;;;;;;26.43;9.13;;;;;;;12.28;69.55;101429.55;124341;1099;104297;-76
2022/10/12 07:32:55;;;;;;;21.80;8.23;;;;;;;12.42;69.16;101424.89;124715;1099;105134;-75
2022/10/12 07:35:27;;;;;;;22.30;7.73;;;;;;;12.53;68.57;101426.23;124295;1102;104301;-76
2022/10/12 07:38:01;;;;;;;22.80;8.50;;;;;;;12.67;68.68;101420.63;124703;1099;102086;-76
2022/10/12 07:40:38;;;;;;;24.57;8.67;;;;;;;12.82;68.06;101421.27;124525;1098;104348;-76
2022/10/12 07:43:12;;;;;;;22.65;8.70;;;;;;;12.95;68.05;101415.68;124661;1099;104173;-77
2022/10/12 07:45:44;;;;;;;20.27;8.40;;;;;;;13.10;68.51;101417.13;124627;1099;104328;-75
2022/10/12 07:48:16;;;;;;;23.80;8.50;;;;;;;13.25;67.58;101408.94;124694;1099;104235;-75
2022/10/12 07:50:48;;;;;;;23.40;8.20;;;;;;;13.40;67.10;101411.30;124292;1098;104160;-74
2022/10/12 07:53:23;;;;;;;21.40;8.50;;;;;;;13.54;66.90;101406.55;124250;1099;102033;-74
2022/10/12 07:56:08;;;;;;;18.00;7.60;;;;;;;13.70;67.28;101408.02;124589;1099;104217;-74
2022/10/12 07:58:39;;;;;;;20.27;7.83;;;;;;;13.81;67.70;101412.87;124672;1098;102290;-75
2022/10/12 08:01:11;;;;;;;;;;;;;;;13.94;65.44;101408.05;124388;1099;104160;-73
2022/10/12 08:03:46;;;;;;;23.13;8.80;;;;;;;14.08;66.79;101405.91;124305;1099;102290;-75
2022/10/12 08:06:20;;;;;;;20.13;8.30;;;;;;;14.23;66.44;101397.61;124188;1099;104354;-75
2022/10/12 08:08:52;;;;;;;24.18;8.18;;;;;;;14.39;65.99;101402.59;124682;1099;102459;-76
2022/10/12 08:11:23;;;;;;;19.90;8.43;;;;;;;14.53;66.74;101395.15;124256;1099;104220;-74
2022/10/12 08:13:58;;;;;;;29.70;8.63;;;;;;;14.62;66.37;101400.78;124630;1099;104221;-74
2022/10/12 08:16:30;;;;;;;23.77;8.90;;;;;;;14.73;65.49;101407.30;125887;1098;102595;-75
2022/10/12 08:19:03;;;;;;;21.70;8.83;;;;;;;14.83;65.00;101403.22;124252;1102;102200;-74
2022/10/12 08:21:41;;;;;;;26.80;9.10;;;;;;;14.95;65.45;101402.73;126108;1098;102553;-77
2022/10/12 08:24:19;;;;;;;20.10;8.47;;;;;;;15.05;64.69;101410.12;124698;1099;104281;-75
2022/10/12 08:26:53;;;;;;;22.03;7.93;;;;;;;15.08;64.72;101399.64;124784;1099;104224;-75
2022/10/12 08:29:29;;;;;;;20.13;7.57;;;;;;;15.19;64.60;101406.98;125175;1099;104141;-76
2022/10/12 08:32:06;;;;;;;21.70;7.97;;;;;;;15.36;64.83;101405.76;124635;1099;108281;-75
2022/10/12 08:34:38;;;;;;;25.03;8.23;;;;;;;15.48;64.35;101401.72;125019;1099;102315;-76
2022/10/12 08:37:15;;;;;;;20.23;7.85;;;;;;;15.61;64.60;101396.84;124333;1099;104310;-78
2022/10/12 08:39:49;;;;;;;18.17;8.00;;;;;;;15.73;64.02;101404.22;125559;1099;104344;-77
2022/10/12 08:42:36;;;;;;;20.93;7.90;;;;;;;15.84;63.18;101399.27;125515;1099;117820;-78
2022/10/12 08:45:27;;;;;;;17.23;6.93;;;;;;;15.97;63.25;101400.50;125517;1099;104317;-76
2022/10/12 08:48:05;;;;;;;17.97;7.07;;;;;;;16.11;63.63;101399.16;124917;1102;104194;-77
2022/10/12 08:51:04;;;;;;;17.67;7.23;;;;;;;16.26;63.25;101395.12;124985;1102;103357;-77
2022/10/12 08:53:53;;;;;;;20.90;7.30;;;;;;;16.31;61.96;101397.05;125585;1099;104256;-76
2022/10/12 08:56:31;;;;;;;18.55;7.40;;;;;;;16.39;61.87;101396.33;125555;1099;104165;-77
2022/10/12 08:59:06;;;;;;;17.83;6.30;;;;;;;16.51;61.60;101394.00;125832;1099;104179;-76
2022/10/12 09:01:57;;;;;;;19.77;6.87;;;;;;;16.63;62.21;101385.48;125572;1099;104148;-76
2022/10/12 09:04:52;;;;;;;17.43;6.30;;;;;;;16.84;61.84;101393.05;124721;1099;104201;-76
2022/10/12 09:07:32;;;;;;;17.30;6.80;;;;;;;17.03;61.26;101390.02;124836;1099;104194;-76
2022/10/12 09:10:25;;;;;;;20.10;6.60;;;;;;;17.18;60.63;101381.50;125537;1099;104165;-76
2022/10/12 09:13:22;;;;;;;22.00;7.00;;;;;;;17.37;60.71;101381.91;125567;1099;108413;-75
2022/10/12 09:16:10;;;;;;;18.00;6.87;;;;;;;17.54;59.79;101385.81;125617;1099;104187;-75
2022/10/12 09:18:48;;;;;;;17.67;7.13;;;;;;;17.68;58.98;101385.23;124420;1099;102831;-76
2022/10/12 09:21:26;;;;;;;17.80;6.73;;;;;;;17.82;57.88;101378.43;124946;1099;104206;-75
2022/10/12 09:24:05;;;;;;;14.43;6.03;;;;;;;17.93;58.41;101387.53;124734;1099;104270;-76
2022/10/12 09:26:38;;;;;;;15.10;6.03;;;;;;;18.03;57.69;101375.34;124740;1099;104242;-75
2022/10/12 09:29:24;;;;;;;14.97;5.87;;;;;;;18.09;57.08;101378.12;124760;1099;102818;-76
2022/10/12 09:32:19;;;;;;;17.43;5.90;;;;;;;18.19;57.54;101379.18;125912;1098;102381;-77
2022/10/12 09:34:57;;;;;;;14.68;5.65;;;;;;;18.32;57.12;101381.20;125547;1099;104267;-74
2022/10/12 09:37:34;;;;;;;10.47;4.73;;;;;;;18.31;55.47;101370.55;124648;1099;104181;-75
2022/10/12 09:40:21;;;;;;;13.93;5.30;;;;;;;18.28;55.92;101371.38;125485;1097;104056;-77
2022/10/12 09:43:00;;;;;;;12.67;5.20;;;;;;;18.22;55.56;101376.58;125584;1099;104175;-75
2022/10/12 09:45:36;;;;;;;11.67;5.00;;;;;;;18.20;56.32;101369.44;125532;1098;104251;-74
2022/10/12 09:48:23;;;;;;;17.30;5.63;;;;;;;18.23;55.20;101366.83;124274;1102;104303;-75
2022/10/12 09:51:05;;;;;;;17.53;6.40;;;;;;;18.36;55.21;101367.97;124666;1099;102858;-75
2022/10/12 09:53:41;;;;;;;18.00;5.60;;;;;;;18.43;53.63;101362.80;125174;1099;102763;-75
2022/10/12 09:56:23;;;;;;;14.50;5.90;;;;;;;18.38;54.40;101371.55;124853;1099;104177;-75
2022/10/12 09:58:59;;;;;;;;;;;;;;;18.29;53.09;101365.20;124347;1099;104172;-78
2022/10/12 10:01:34;;;;;;;17.00;5.60;;;;;;;18.38;54.73;101368.88;125557;1098;101859;-77
2022/10/12 10:04:22;;;;;;;19.67;6.37;;;;;;;18.51;54.30;101354.92;125562;1099;118570;-76
2022/10/12 10:07:22;;;;;;;15.20;5.60;;;;;;;18.62;54.83;101358.67;124667;1099;104383;-75
2022/10/12 10:10:14;;;;;;;15.87;6.17;;;;;;;18.74;53.77;101352.64;124306;1099;102302;-76
2022/10/12 10:12:53;;;;;;;17.00;6.37;;;;;;;18.88;54.30;101360.86;124632;1099;104277;-76
2022/10/12 10:15:27;;;;;;;16.50;5.70;;;;;;;18.98;54.02;101351.25;124739;1099;104185;-75
2022/10/12 10:18:02;;;;;;;16.90;6.47;;;;;;;19.14;54.36;101347.95;124748;1099;104252;-76
2022/10/12 10:20:39;;;;;;;16.07;6.20;;;;;;;19.22;53.70;101340.08;124688;1099;102831;-77
2022/10/12 10:23:27;;;;;;;17.87;7.13;;;;;;;19.25;54.07;101348.09;124427;1099;104322;-75
2022/10/12 10:26:04;;;;;;;14.87;6.57;;;;;;;19.17;53.55;101344.45;124717;1099;104204;-72
2022/10/12 10:28:37;;;;;;;16.37;6.80;;;;;;;19.16;52.52;101346.20;124683;1099;104223;-73
2022/10/12 10:31:23;;;;;;;19.10;7.63;;;;;;;19.16;52.23;101345.31;124710;1099;104205;-72
2022/10/12 10:34:20;;;;;;;13.38;6.08;;;;;;;19.13;52.75;101346.16;124665;1099;104351;-73
2022/10/12 10:36:54;;;;;;;15.93;6.97;;;;;;;19.06;51.76;101340.72;124688;1099;104187;-72
2022/10/12 10:39:38;;;;;;;16.47;6.37;;;;;;;19.01;52.38;101335.34;124683;1099;104309;-74
2022/10/12 10:42:19;;;;;;;18.47;6.00;;;;;;;19.00;52.39;101333.57;124736;1098;104268;-73
2022/10/12 10:44:57;;;;;;;16.10;6.50;;;;;;;19.07;52.14;101332.77;124695;1099;104220;-73
2022/10/12 10:47:59;;;;;;;15.17;6.37;;;;;;;19.07;50.54;101329.22;124617;1099;104179;-73
2022/10/12 10:51:15;;;;;;;19.40;6.40;;;;;;;19.02;51.64;101327.38;124699;1099;104258;-74
2022/10/12 10:53:52;;;;;;;13.73;6.20;;;;;;;19.01;50.93;101325.61;124642;1099;104794;-73
2022/10/12 10:56:30;;;;;;;12.37;6.20;;;;;;;18.96;51.93;101329.95;126025;1098;104163;-74
2022/10/12 10:59:13;;;;;;;14.93;6.40;;;;;;;18.85;50.98;101331.56;124745;1099;101939;-73
2022/10/12 11:01:56;;;;;;;16.57;6.57;;;;;;;18.69;51.26;101322.44;124635;1099;104242;-74
2022/10/12 11:04:32;;;;;;;13.90;6.33;;;;;;;18.59;50.72;101333.78;124672;1099;104176;-75
2022/10/12 11:07:16;;;;;;;15.00;6.17;;;;;;;18.56;50.99;101334.65;124696;1099;104249;-75
2022/10/12 11:09:56;;;;;;;17.30;6.97;;;;;;;18.52;51.44;101326.60;124731;1099;104310;-75
2022/10/12 11:12:33;;;;;;;17.73;7.13;;;;;;;18.55;50.86;101322.22;124733;1099;104297;-74
2022/10/12 11:15:16;;;;;;;18.87;7.73;;;;;;;18.63;51.26;101328.55;124775;1099;104227;-75
2022/10/12 11:17:52;;;;;;;15.13;6.60;;;;;;;18.60;50.23;101314.32;124797;1099;104195;-77
2022/10/12 11:20:37;;;;;;;21.30;6.83;;;;;;;18.70;50.81;101313.61;124802;1099;104239;-76
2022/10/12 11:23:22;;;;;;;17.00;6.53;;;;;;;18.71;51.08;101317.14;125421;1098;102174;-75
2022/10/12 11:26:06;;;;;;;21.03;6.57;;;;;;;18.64;50.03;101311.73;125000;1099;118567;-75
2022/10/12 11:28:42;;;;;;;15.90;6.60;;;;;;;18.62;50.47;101310.83;124780;1099;104187;-78
2022/10/12 11:31:23;;;;;;;16.70;6.40;;;;;;;18.61;50.05;101313.46;125832;1098;102064;-77
2022/10/12 11:34:08;;;;;;;16.25;5.90;;;;;;;18.58;50.15;101308.09;124952;1099;102623;-76
2022/10/12 11:36:45;;;;;;;17.30;6.30;;;;;;;18.55;50.35;101308.05;124796;1099;103388;-76
2022/10/12 11:39:36;;;;;;;15.17;6.33;;;;;;;18.60;50.27;101316.98;124768;1099;102796;-76
2022/10/12 11:43:22;;;;;;;;;;;;;;;;;;;;;
2022/10/12 11:46:39;;;;;;;17.50;6.27;;;;;;;18.76;49.80;101308.37;124900;1099;104245;-78
2022/10/12 11:49:18;;;;;;;13.80;6.17;;;;;;;18.82;50.32;101300.50;125255;1099;102344;-78
2022/10/12 11:51:56;;;;;;;15.67;6.30;;;;;;;18.84;49.69;101305.84;124791;1099;102806;-76
2022/10/12 11:54:39;;;;;;;17.07;6.30;;;;;;;18.88;50.25;101302.36;124649;1098;104649;-76
2022/10/12 11:57:16;;;;;;;16.77;6.15;;;;;;;18.90;50.07;101303.30;124739;1099;104235;-76